createdAt,value
2023-03-25T00:00:28.904Z,8.52
2023-03-25T00:02:57.326Z,8.49
2023-03-25T00:05:25.508Z,8.54
2023-03-25T00:07:53.614Z,8.49
2023-03-25T00:10:22.275Z,8.41
2023-03-25T00:12:50.330Z,8.38
2023-03-25T00:15:22.446Z,8.40
2023-03-25T00:17:53.001Z,8.40
2023-03-25T00:20:22.736Z,8.34
2023-03-25T00:22:50.871Z,8.32
2023-03-25T00:25:21.232Z,8.32
2023-03-25T00:27:51.113Z,8.29
2023-03-25T00:30:21.376Z,8.33
2023-03-25T00:32:53.245Z,8.41
2023-03-25T00:35:22.096Z,8.38
2023-03-25T00:37:57.463Z,8.40
2023-03-25T00:40:26.241Z,8.40
2023-03-25T00:42:54.203Z,8.41
2023-03-25T00:45:24.778Z,8.39
2023-03-25T00:47:53.095Z,8.31
2023-03-25T00:50:24.539Z,8.25
2023-03-25T00:52:53.631Z,8.25
2023-03-25T00:55:22.197Z,8.21
2023-03-25T00:57:50.612Z,8.23
2023-03-25T01:00:19.568Z,8.32
2023-03-25T01:02:54.031Z,8.43
2023-03-25T01:05:22.854Z,8.58
2023-03-25T01:07:52.143Z,8.75
2023-03-25T01:10:20.185Z,9.00
2023-03-25T01:12:48.227Z,9.15
2023-03-25T01:15:17.511Z,9.14
2023-03-25T01:17:45.462Z,9.19
2023-03-25T01:20:15.170Z,9.03
2023-03-25T01:22:43.397Z,8.94
2023-03-25T01:25:11.599Z,8.92
2023-03-25T01:27:40.128Z,8.90
2023-03-25T01:30:09.110Z,8.96
2023-03-25T01:32:39.901Z,9.03
2023-03-25T01:35:08.435Z,9.08
2023-03-25T01:37:39.179Z,9.18
2023-03-25T01:40:10.318Z,9.24
2023-03-25T01:42:38.640Z,9.22
2023-03-25T01:45:17.276Z,9.33
2023-03-25T01:47:47.285Z,9.43
2023-03-25T01:50:17.597Z,9.42
2023-03-25T01:52:48.812Z,9.51
2023-03-25T01:55:18.097Z,9.57
2023-03-25T01:57:49.346Z,9.57
2023-03-25T02:00:20.609Z,9.49
2023-03-25T02:02:53.171Z,9.33
2023-03-25T02:05:25.559Z,9.18
2023-03-25T02:07:58.127Z,8.96
2023-03-25T02:10:26.092Z,8.83
2023-03-25T02:12:54.136Z,8.79
2023-03-25T02:15:22.516Z,8.81
2023-03-25T02:18:01.348Z,8.76
2023-03-25T02:20:47.286Z,8.73
2023-03-25T02:23:32.202Z,8.69
2023-03-25T02:26:13.463Z,8.67
2023-03-25T02:28:47.268Z,8.77
2023-03-25T02:31:32.579Z,8.76
2023-03-25T02:34:18.871Z,8.66
2023-03-25T02:37:07.076Z,8.49
2023-03-25T02:39:41.433Z,8.43
2023-03-25T02:42:13.042Z,8.36
2023-03-25T02:44:43.160Z,8.37
2023-03-25T02:47:14.868Z,8.42
2023-03-25T02:49:45.588Z,8.40
2023-03-25T02:52:15.882Z,8.44
2023-03-25T02:54:47.746Z,8.49
2023-03-25T02:57:19.089Z,8.49
2023-03-25T02:59:47.869Z,8.63
2023-03-25T03:02:17.721Z,8.60
2023-03-25T03:04:48.614Z,8.59
2023-03-25T03:07:21.420Z,8.68
2023-03-25T03:09:54.441Z,8.65
2023-03-25T03:12:31.471Z,8.57
2023-03-25T03:15:05.807Z,8.50
2023-03-25T03:17:39.987Z,8.44
2023-03-25T03:20:14.079Z,8.42
2023-03-25T03:22:44.342Z,8.42
2023-03-25T03:25:22.369Z,8.48
2023-03-25T03:27:54.292Z,8.45
2023-03-25T03:30:30.067Z,8.46
2023-03-25T03:33:02.228Z,8.42
2023-03-25T03:35:33.141Z,8.44
2023-03-25T03:38:04.299Z,8.43
2023-03-25T03:40:34.218Z,8.50
2023-03-25T03:43:07.242Z,8.49
2023-03-25T03:45:37.952Z,8.53
2023-03-25T03:48:10.407Z,8.60
2023-03-25T03:50:41.271Z,8.51
2023-03-25T03:53:11.605Z,8.60
2023-03-25T03:55:42.802Z,8.52
2023-03-25T03:58:15.450Z,8.43
2023-03-25T04:00:45.918Z,8.56
2023-03-25T04:03:16.019Z,8.62
2023-03-25T04:05:48.811Z,8.80
2023-03-25T04:08:23.973Z,8.91
2023-03-25T04:10:59.449Z,8.98
2023-03-25T04:13:30.303Z,8.87
2023-03-25T04:16:00.669Z,8.79
2023-03-25T04:18:29.561Z,8.75
2023-03-25T04:20:59.035Z,8.87
2023-03-25T04:23:29.897Z,8.95
2023-03-25T04:26:03.127Z,8.96
2023-03-25T04:28:32.008Z,8.94
2023-03-25T04:31:00.885Z,8.99
2023-03-25T04:33:32.795Z,9.05
2023-03-25T04:36:02.386Z,9.03
2023-03-25T04:38:30.583Z,9.06
2023-03-25T04:41:07.071Z,9.06
2023-03-25T04:43:35.368Z,8.98
2023-03-25T04:46:07.050Z,8.96
2023-03-25T04:48:41.422Z,9.00
2023-03-25T04:51:13.041Z,9.02
2023-03-25T04:53:42.703Z,9.06
2023-03-25T04:56:16.412Z,9.10
2023-03-25T04:58:44.574Z,9.09
2023-03-25T05:01:21.009Z,9.08
2023-03-25T05:03:50.507Z,9.05
2023-03-25T05:06:18.882Z,8.98
2023-03-25T05:08:47.186Z,9.01
2023-03-25T05:11:16.481Z,9.04
2023-03-25T05:13:44.475Z,9.03
2023-03-25T05:16:13.045Z,8.99
2023-03-25T05:18:41.392Z,8.96
2023-03-25T05:21:11.781Z,8.90
2023-03-25T05:23:39.786Z,8.92
2023-03-25T05:26:08.414Z,8.89
2023-03-25T05:28:38.390Z,8.79
2023-03-25T05:31:08.911Z,8.83
2023-03-25T05:33:43.486Z,8.88
2023-03-25T05:36:14.353Z,8.88
2023-03-25T05:38:43.656Z,8.84
2023-03-25T05:41:17.106Z,8.93
2023-03-25T05:43:48.593Z,8.94
2023-03-25T05:46:18.055Z,9.00
2023-03-25T05:48:46.369Z,8.90
2023-03-25T05:51:16.318Z,8.85
2023-03-25T05:53:44.976Z,8.91
2023-03-25T05:56:13.551Z,9.00
2023-03-25T05:58:41.876Z,8.93
2023-03-25T06:01:21.848Z,8.74
2023-03-25T06:04:01.355Z,8.49
2023-03-25T06:06:29.719Z,8.34
2023-03-25T06:08:57.971Z,8.27
2023-03-25T06:11:26.189Z,8.26
2023-03-25T06:13:54.625Z,8.13
2023-03-25T06:16:28.070Z,8.10
2023-03-25T06:19:00.477Z,8.20
2023-03-25T06:21:30.152Z,8.19
2023-03-25T06:23:59.643Z,8.31
2023-03-25T06:26:28.441Z,8.32
2023-03-25T06:28:56.259Z,8.41
2023-03-25T06:31:29.463Z,8.44
2023-03-25T06:33:57.818Z,8.65
2023-03-25T06:36:26.457Z,8.72
2023-03-25T06:38:54.740Z,8.75
2023-03-25T06:41:25.906Z,8.90
2023-03-25T06:44:10.763Z,8.96
2023-03-25T06:46:51.792Z,9.33
2023-03-25T06:49:30.002Z,9.61
2023-03-25T06:51:59.802Z,9.47
2023-03-25T06:54:27.712Z,9.65
2023-03-25T06:56:55.891Z,9.84
2023-03-25T06:59:23.924Z,10.29
2023-03-25T07:01:54.434Z,10.75
2023-03-25T07:04:22.676Z,11.48
2023-03-25T07:06:50.941Z,11.70
2023-03-25T07:09:19.327Z,11.62
2023-03-25T07:11:47.539Z,11.24
2023-03-25T07:14:15.468Z,11.17
2023-03-25T07:16:44.060Z,11.24
2023-03-25T07:19:13.316Z,11.48
2023-03-25T07:21:41.519Z,11.84
2023-03-25T07:24:09.910Z,11.99
2023-03-25T07:26:37.997Z,12.51
2023-03-25T07:29:06.900Z,12.79
2023-03-25T07:31:36.166Z,13.43
2023-03-25T07:34:05.084Z,13.27
2023-03-25T07:36:34.452Z,13.35
2023-03-25T07:39:03.114Z,13.10
2023-03-25T07:41:31.189Z,12.68
2023-03-25T07:44:20.727Z,13.02
2023-03-25T07:46:50.854Z,13.29
2023-03-25T07:49:19.476Z,13.44
2023-03-25T07:51:49.171Z,13.78
2023-03-25T07:54:18.236Z,14.10
2023-03-25T07:56:46.674Z,14.28
2023-03-25T07:59:14.997Z,14.48
2023-03-25T08:01:43.787Z,13.37
2023-03-25T08:04:14.020Z,13.25
2023-03-25T08:06:42.438Z,12.95
2023-03-25T08:09:12.135Z,12.44
2023-03-25T08:11:40.991Z,13.08
2023-03-25T08:14:09.627Z,14.03
2023-03-25T08:16:38.012Z,14.11
2023-03-25T08:19:06.033Z,13.34
2023-03-25T08:21:34.283Z,13.14
2023-03-25T08:24:04.825Z,13.08
2023-03-25T08:26:35.460Z,13.43
2023-03-25T08:29:05.420Z,13.39
2023-03-25T08:31:34.369Z,13.03
2023-03-25T08:34:04.912Z,13.06
2023-03-25T08:36:34.851Z,13.20
2023-03-25T08:39:08.209Z,12.74
2023-03-25T08:41:38.981Z,13.42
2023-03-25T08:44:07.524Z,14.16
2023-03-25T08:46:37.868Z,14.88
2023-03-25T08:49:09.846Z,14.13
2023-03-25T08:51:38.370Z,14.27
2023-03-25T08:54:07.304Z,14.34
2023-03-25T08:56:35.957Z,13.87
2023-03-25T08:59:05.681Z,13.71
2023-03-25T09:01:37.336Z,13.31
2023-03-25T09:04:06.222Z,13.22
2023-03-25T09:06:48.119Z,13.63
2023-03-25T09:09:24.539Z,13.58
2023-03-25T09:11:52.546Z,13.55
2023-03-25T09:14:22.307Z,13.53
2023-03-25T09:16:51.727Z,13.45
2023-03-25T09:19:20.869Z,13.04
2023-03-25T09:21:49.666Z,12.54
2023-03-25T09:24:22.056Z,12.29
2023-03-25T09:26:51.062Z,12.07
2023-03-25T09:29:19.891Z,11.57
2023-03-25T09:31:50.184Z,11.62
2023-03-25T09:34:18.560Z,12.31
2023-03-25T09:36:49.869Z,12.74
2023-03-25T09:39:18.297Z,13.16
2023-03-25T09:42:00.297Z,12.74
2023-03-25T09:44:30.153Z,11.29
2023-03-25T09:47:01.946Z,11.07
2023-03-25T09:49:37.646Z,10.97
2023-03-25T09:52:07.545Z,10.65
2023-03-25T09:54:38.127Z,10.83
2023-03-25T09:57:09.260Z,11.12
2023-03-25T09:59:41.604Z,11.12
2023-03-25T10:02:20.693Z,11.17
2023-03-25T10:04:56.552Z,11.32
2023-03-25T10:07:34.295Z,11.22
2023-03-25T10:10:05.618Z,10.89
2023-03-25T10:12:38.175Z,10.61
2023-03-25T10:15:14.621Z,9.99
2023-03-25T10:17:54.529Z,7.32
2023-03-25T10:20:26.644Z,7.05
2023-03-25T10:23:02.126Z,7.18
2023-03-25T10:25:32.181Z,7.41
2023-03-25T10:28:01.226Z,7.70
2023-03-25T10:30:31.738Z,8.30
2023-03-25T10:33:04.023Z,9.27
2023-03-25T10:35:32.877Z,10.09
2023-03-25T10:38:08.723Z,10.41
2023-03-25T10:40:44.883Z,11.13
2023-03-25T10:43:17.668Z,10.56
2023-03-25T10:45:47.006Z,10.73
2023-03-25T10:48:20.296Z,11.52
2023-03-25T10:50:49.241Z,10.93
2023-03-25T10:53:21.649Z,12.32
2023-03-25T10:55:53.369Z,11.79
2023-03-25T10:58:21.760Z,11.43
2023-03-25T11:00:50.479Z,13.79
2023-03-25T11:03:24.820Z,13.84
2023-03-25T11:05:55.540Z,14.57
2023-03-25T11:08:27.224Z,15.91
2023-03-25T11:11:04.591Z,15.28
2023-03-25T11:13:33.782Z,15.73
2023-03-25T11:16:04.141Z,15.87
2023-03-25T11:21:06.738Z,15.10
2023-03-25T11:23:35.654Z,15.22
2023-03-25T11:26:06.315Z,14.51
2023-03-25T11:28:39.175Z,15.48
2023-03-25T11:31:10.203Z,16.36
2023-03-25T11:33:41.542Z,15.03
2023-03-25T11:36:37.915Z,16.34
2023-03-25T11:39:15.762Z,14.63
2023-03-25T11:41:43.723Z,15.13
2023-03-25T11:44:20.358Z,14.61
2023-03-25T11:46:51.213Z,13.95
2023-03-25T11:49:22.142Z,15.65
2023-03-25T11:51:51.974Z,19.56
2023-03-25T11:54:20.939Z,22.44
2023-03-25T11:56:51.251Z,22.12
2023-03-25T11:59:24.165Z,18.70
2023-03-25T12:01:53.825Z,18.03
2023-03-25T12:04:25.119Z,18.58
2023-03-25T12:06:55.633Z,18.34
2023-03-25T12:09:23.915Z,16.80
2023-03-25T12:11:57.035Z,15.71
2023-03-25T12:14:34.060Z,15.57
2023-03-25T12:17:07.291Z,18.11
2023-03-25T12:19:43.463Z,21.44
2023-03-25T12:22:18.832Z,22.38
2023-03-25T12:24:57.329Z,23.89
2023-03-25T12:27:31.646Z,24.59
2023-03-25T12:30:06.125Z,22.08
2023-03-25T12:32:38.107Z,19.98
2023-03-25T12:35:16.896Z,21.21
2023-03-25T12:37:50.964Z,21.91
2023-03-25T12:40:29.906Z,19.91
2023-03-25T12:43:05.130Z,20.28
2023-03-25T12:45:41.124Z,19.20
2023-03-25T12:48:15.094Z,19.78
2023-03-25T12:50:51.236Z,19.44
2023-03-25T12:53:28.804Z,20.03
2023-03-25T12:56:04.158Z,16.59
2023-03-25T12:58:56.185Z,14.70
2023-03-25T13:01:29.698Z,14.09
2023-03-25T13:04:08.921Z,12.69
2023-03-25T13:06:42.851Z,10.94
2023-03-25T13:09:14.325Z,10.30
2023-03-25T13:11:45.128Z,10.28
2023-03-25T13:14:19.932Z,11.51
2023-03-25T13:16:50.224Z,13.23
2023-03-25T13:19:21.121Z,14.65
2023-03-25T13:21:53.148Z,16.40
2023-03-25T13:24:23.269Z,16.34
2023-03-25T13:26:53.764Z,15.70
2023-03-25T13:29:26.305Z,17.33
2023-03-25T13:31:55.150Z,16.01
2023-03-25T13:34:30.040Z,14.17
2023-03-25T13:37:05.786Z,15.27
2023-03-25T13:39:51.931Z,16.97
2023-03-25T13:42:22.225Z,17.36
2023-03-25T13:44:52.817Z,16.56
2023-03-25T13:47:25.220Z,16.57
2023-03-25T13:49:56.126Z,15.25
2023-03-25T13:52:27.101Z,15.74
2023-03-25T13:54:58.355Z,15.78
2023-03-25T13:57:44.662Z,16.22
2023-03-25T14:00:21.710Z,18.72
2023-03-25T14:03:06.210Z,21.30
2023-03-25T14:05:46.728Z,16.56
2023-03-25T14:08:29.926Z,18.81
2023-03-25T14:11:12.272Z,21.17
2023-03-25T14:13:43.010Z,19.05
2023-03-25T14:16:14.067Z,17.39
2023-03-25T14:18:45.693Z,17.99
2023-03-25T14:21:16.998Z,17.63
2023-03-25T14:23:45.281Z,18.43
2023-03-25T14:26:18.724Z,17.62
2023-03-25T14:28:47.873Z,20.21
2023-03-25T14:31:29.888Z,19.84
2023-03-25T14:34:14.686Z,21.14
2023-03-25T14:37:04.831Z,19.61
2023-03-25T14:39:39.836Z,18.95
2023-03-25T14:42:14.627Z,18.63
2023-03-25T14:44:50.016Z,19.90
2023-03-25T14:47:30.565Z,19.54
2023-03-25T14:50:06.145Z,19.65
2023-03-25T14:52:39.160Z,18.44
2023-03-25T14:55:10.542Z,18.10
2023-03-25T14:57:45.556Z,18.76
2023-03-25T15:00:24.248Z,20.29
2023-03-25T15:02:54.552Z,19.49
2023-03-25T15:05:27.390Z,19.93
2023-03-25T15:07:59.158Z,19.80
2023-03-25T15:10:28.451Z,19.75
2023-03-25T15:13:02.893Z,19.06
2023-03-25T15:15:33.134Z,20.22
2023-03-25T15:18:01.496Z,20.13
2023-03-25T15:20:39.817Z,17.07
2023-03-25T15:23:30.744Z,15.59
2023-03-25T15:26:00.962Z,15.43
2023-03-25T15:28:37.816Z,15.18
2023-03-25T15:31:12.737Z,16.94
2023-03-25T15:33:48.705Z,19.10
2023-03-25T15:36:32.364Z,17.26
2023-03-25T15:39:11.157Z,17.06
2023-03-25T15:41:52.524Z,19.40
2023-03-25T15:44:31.918Z,19.66
2023-03-25T15:47:13.238Z,20.09
2023-03-25T15:49:52.201Z,18.10
2023-03-25T15:52:30.628Z,16.12
2023-03-25T15:55:01.494Z,15.37
2023-03-25T15:57:31.886Z,15.14
2023-03-25T16:00:07.285Z,15.80
2023-03-25T16:02:40.526Z,16.13
2023-03-25T16:05:11.880Z,16.94
2023-03-25T16:07:42.444Z,16.16
2023-03-25T16:10:19.060Z,16.94
2023-03-25T16:12:48.044Z,17.48
2023-03-25T16:15:18.622Z,17.99
2023-03-25T16:17:47.556Z,17.48
2023-03-25T16:20:18.374Z,16.57
2023-03-25T16:22:49.451Z,16.32
2023-03-25T16:25:19.751Z,15.91
2023-03-25T16:27:52.023Z,15.79
2023-03-25T16:30:24.994Z,15.78
2023-03-25T16:32:53.063Z,15.71
2023-03-25T16:35:22.115Z,15.20
2023-03-25T16:37:52.240Z,16.07
2023-03-25T16:40:24.656Z,16.39
2023-03-25T16:42:54.817Z,16.32
2023-03-25T16:45:25.180Z,14.71
2023-03-25T16:47:56.285Z,13.54
2023-03-25T16:50:24.507Z,13.24
2023-03-25T16:52:52.831Z,12.87
2023-03-25T16:55:31.941Z,12.76
2023-03-25T16:58:01.657Z,12.65
2023-03-25T17:00:43.753Z,12.52
2023-03-25T17:03:17.840Z,12.53
2023-03-25T17:05:59.435Z,12.46
2023-03-25T17:08:29.043Z,12.44
2023-03-25T17:10:58.826Z,12.39
2023-03-25T17:13:28.022Z,12.49
2023-03-25T17:15:57.640Z,12.50
2023-03-25T17:18:28.111Z,12.55
2023-03-25T17:20:57.927Z,12.48
2023-03-25T17:23:34.211Z,12.38
2023-03-25T17:26:03.198Z,12.23
2023-03-25T17:28:35.270Z,12.23
2023-03-25T17:31:17.807Z,12.32
2023-03-25T17:33:49.062Z,12.38
2023-03-25T17:36:19.307Z,12.48
2023-03-25T17:38:48.920Z,12.66
2023-03-25T17:41:18.484Z,12.83
2023-03-25T17:43:48.188Z,13.02
2023-03-25T17:46:20.895Z,12.66
2023-03-25T17:48:50.861Z,12.18
2023-03-25T17:51:21.744Z,11.81
2023-03-25T17:53:50.845Z,11.33
2023-03-25T17:56:22.159Z,10.86
2023-03-25T17:58:54.297Z,10.65
2023-03-25T18:01:27.752Z,10.54
2023-03-25T18:03:58.581Z,10.49
2023-03-25T18:06:30.880Z,10.45
2023-03-25T18:09:07.076Z,10.50
2023-03-25T18:11:35.793Z,10.49
2023-03-25T18:14:07.372Z,10.37
2023-03-25T18:16:38.253Z,10.29
2023-03-25T18:19:10.299Z,10.28
2023-03-25T18:21:38.617Z,10.16
2023-03-25T18:24:07.149Z,10.07
2023-03-25T18:26:35.451Z,10.06
2023-03-25T18:29:05.587Z,10.04
2023-03-25T18:31:33.635Z,9.99
2023-03-25T18:34:04.158Z,9.95
2023-03-25T18:36:31.964Z,9.91
2023-03-25T18:39:00.226Z,9.90
2023-03-25T18:41:29.977Z,9.86
2023-03-25T18:43:58.051Z,9.88
2023-03-25T18:46:26.580Z,9.83
2023-03-25T18:48:56.312Z,9.75
2023-03-25T18:51:29.521Z,9.74
2023-03-25T18:53:58.010Z,9.71
2023-03-25T18:56:26.094Z,9.72
2023-03-25T18:58:56.989Z,9.73
2023-03-25T19:01:29.507Z,9.68
2023-03-25T19:04:02.596Z,9.64
2023-03-25T19:06:39.740Z,9.64
2023-03-25T19:09:10.925Z,9.49
2023-03-25T19:11:39.765Z,9.40
2023-03-25T19:14:07.845Z,9.40
2023-03-25T19:16:39.023Z,9.37
2023-03-25T19:19:09.195Z,9.33
2023-03-25T19:21:39.250Z,9.32
2023-03-25T19:24:07.807Z,9.35
2023-03-25T19:26:39.465Z,9.23
2023-03-25T19:29:12.441Z,9.14
2023-03-25T19:31:43.949Z,9.03
2023-03-25T19:34:11.852Z,9.00
2023-03-25T19:36:42.473Z,8.96
2023-03-25T19:39:11.457Z,8.90
2023-03-25T19:41:43.128Z,8.93
2023-03-25T19:44:11.689Z,9.00
2023-03-25T19:46:43.258Z,9.06
2023-03-25T19:49:16.052Z,9.16
2023-03-25T19:51:51.466Z,9.31
2023-03-25T19:54:20.028Z,9.45
2023-03-25T19:56:48.649Z,9.65
2023-03-25T19:59:18.628Z,9.70
2023-03-25T20:01:46.869Z,9.78
2023-03-25T20:04:17.054Z,9.76
2023-03-25T20:06:46.198Z,9.74
2023-03-25T20:09:15.956Z,9.65
2023-03-25T20:11:45.276Z,9.50
2023-03-25T20:14:14.043Z,9.35
2023-03-25T20:16:42.344Z,9.21
2023-03-25T20:19:11.122Z,9.02
2023-03-25T20:21:39.238Z,8.99
2023-03-25T20:24:07.713Z,8.94
2023-03-25T20:26:37.390Z,8.92
2023-03-25T20:29:06.642Z,8.84
2023-03-25T20:31:35.945Z,8.84
2023-03-25T20:34:05.767Z,8.84
2023-03-25T20:36:34.041Z,8.81
2023-03-25T20:39:06.031Z,8.84
2023-03-25T20:41:34.937Z,8.78
2023-03-25T20:44:09.605Z,8.75
2023-03-25T20:46:38.502Z,8.81
2023-03-25T20:49:09.952Z,8.86
2023-03-25T20:51:38.381Z,8.88
2023-03-25T20:54:06.921Z,8.88
2023-03-25T20:56:35.592Z,8.87
2023-03-25T20:59:05.631Z,8.91
2023-03-25T21:01:38.913Z,8.86
2023-03-25T21:04:07.284Z,8.81
2023-03-25T21:06:36.050Z,8.81
2023-03-25T21:09:07.567Z,8.76
2023-03-25T21:11:36.021Z,8.72
2023-03-25T21:14:06.957Z,8.77
2023-03-25T21:16:34.985Z,8.76
2023-03-25T21:19:03.607Z,8.73
2023-03-25T21:21:32.157Z,8.74
2023-03-25T21:24:03.719Z,8.73
2023-03-25T21:26:32.926Z,8.73
2023-03-25T21:29:01.641Z,8.75
2023-03-25T21:31:31.802Z,8.73
2023-03-25T21:34:00.330Z,8.83
2023-03-25T21:36:30.742Z,8.88
2023-03-25T21:39:00.356Z,8.87
2023-03-25T21:41:29.826Z,8.90
2023-03-25T21:43:57.985Z,8.88
2023-03-25T21:46:30.587Z,8.83
2023-03-25T21:49:04.048Z,8.86
2023-03-25T21:51:36.347Z,8.87
2023-03-25T21:54:04.955Z,8.87
2023-03-25T21:56:35.071Z,8.81
2023-03-25T21:59:05.657Z,8.81
2023-03-25T22:01:33.998Z,8.77
2023-03-25T22:04:04.038Z,8.76
2023-03-25T22:06:37.890Z,8.71
2023-03-25T22:09:08.096Z,8.71
2023-03-25T22:11:38.765Z,8.77
2023-03-25T22:14:08.097Z,8.75
2023-03-25T22:16:36.496Z,8.75
2023-03-25T22:19:07.240Z,8.85
2023-03-25T22:21:37.714Z,8.73
2023-03-25T22:24:07.276Z,8.65
2023-03-25T22:26:39.408Z,8.60
2023-03-25T22:29:11.559Z,8.54
2023-03-25T22:31:40.818Z,8.40
2023-03-25T22:34:15.200Z,8.53
2023-03-25T22:36:49.683Z,8.50
2023-03-25T22:39:19.404Z,8.45
2023-03-25T22:41:47.642Z,8.45
2023-03-25T22:44:18.260Z,8.39
2023-03-25T22:46:46.839Z,8.47
2023-03-25T22:49:16.995Z,8.71
2023-03-25T22:51:45.017Z,8.93
2023-03-25T22:54:13.112Z,9.08
2023-03-25T22:56:43.780Z,9.26
2023-03-25T22:59:13.329Z,9.37
2023-03-25T23:01:44.137Z,9.56
2023-03-25T23:04:12.248Z,9.67
2023-03-25T23:06:41.821Z,9.77
2023-03-25T23:09:10.694Z,9.87
2023-03-25T23:11:39.111Z,9.96
2023-03-25T23:14:08.392Z,10.02
2023-03-25T23:16:36.318Z,9.99
2023-03-25T23:19:06.437Z,10.04
2023-03-25T23:21:35.241Z,9.92
2023-03-25T23:24:07.400Z,9.94
2023-03-25T23:26:39.371Z,9.93
2023-03-25T23:29:12.129Z,10.03
2023-03-25T23:31:43.356Z,9.97
2023-03-25T23:34:12.769Z,9.73
2023-03-25T23:36:40.758Z,9.59
2023-03-25T23:39:11.879Z,9.59
2023-03-25T23:41:40.247Z,9.53
2023-03-25T23:44:09.954Z,9.47
2023-03-25T23:46:38.253Z,9.47
2023-03-25T23:49:07.064Z,9.39
2023-03-25T23:51:39.701Z,9.40
2023-03-25T23:54:10.912Z,9.43
2023-03-25T23:56:41.524Z,9.41
2023-03-25T23:59:10.520Z,9.41
